sensor_id;sensor_type;location;lat;lon;timestamp;pressure;altitude;pressure_sealevel;temperature;humidity
12468;BME280;57850;52.922;6.256;2023-05-01T00:01:39;102262.13;;;13.37;100.00
12468;BME280;57850;52.922;6.256;2023-05-01T00:04:06;102261.41;;;13.32;100.00
12468;BME280;57850;52.922;6.256;2023-05-01T00:06:32;102264.03;;;13.32;100.00
12468;BME280;57850;52.922;6.256;2023-05-01T00:09:01;102256.06;;;13.37;100.00
12468;BME280;57850;52.922;6.256;2023-05-01T00:11:28;102259.72;;;13.30;100.00
12468;BME280;57850;52.922;6.256;2023-05-01T00:13:55;102254.50;;;13.28;100.00
12468;BME280;57850;52.922;6.256;2023-05-01T00:16:22;102256.22;;;13.31;100.00
12468;BME280;57850;52.922;6.256;2023-05-01T00:18:48;102253.75;;;13.23;100.00
12468;BME280;57850;52.922;6.256;2023-05-01T00:21:15;102248.50;;;13.25;100.00
12468;BME280;57850;52.922;6.256;2023-05-01T00:23:41;102243.28;;;13.23;100.00
12468;BME280;57850;52.922;6.256;2023-05-01T00:26:09;102250.56;;;13.11;100.00
12468;BME280;57850;52.922;6.256;2023-05-01T00:28:36;102243.59;;;13.10;100.00
12468;BME280;57850;52.922;6.256;2023-05-01T00:31:02;102251.44;;;13.11;100.00
12468;BME280;57850;52.922;6.256;2023-05-01T00:33:29;102248.81;;;13.11;100.00
12468;BME280;57850;52.922;6.256;2023-05-01T00:35:55;102240.84;;;13.16;100.00
12468;BME280;57850;52.922;6.256;2023-05-01T00:38:22;102245.34;;;13.11;100.00
12468;BME280;57850;52.922;6.256;2023-05-01T00:40:49;102237.53;;;13.06;100.00
12468;BME280;57850;52.922;6.256;2023-05-01T00:43:16;102240.16;;;13.06;100.00
12468;BME280;57850;52.922;6.256;2023-05-01T00:45:44;102238.41;;;13.08;100.00
12468;BME280;57850;52.922;6.256;2023-05-01T00:48:11;102233.44;;;12.96;100.00
12468;BME280;57850;52.922;6.256;2023-05-01T00:50:38;102229.00;;;12.98;100.00
12468;BME280;57850;52.922;6.256;2023-05-01T00:53:05;102227.25;;;12.99;100.00
12468;BME280;57850;52.922;6.256;2023-05-01T00:55:32;102227.47;;;12.89;100.00
12468;BME280;57850;52.922;6.256;2023-05-01T00:58:00;102224.09;;;12.84;100.00
12468;BME280;57850;52.922;6.256;2023-05-01T01:00:28;102214.41;;;12.88;100.00
12468;BME280;57850;52.922;6.256;2023-05-01T01:02:55;102212.00;;;12.79;100.00
12468;BME280;57850;52.922;6.256;2023-05-01T01:05:24;102210.97;;;12.86;100.00
12468;BME280;57850;52.922;6.256;2023-05-01T01:08:00;102210.41;;;12.73;100.00
12468;BME280;57850;52.922;6.256;2023-05-01T01:10:34;102208.59;;;12.75;100.00
12468;BME280;57850;52.922;6.256;2023-05-01T01:13:07;102198.75;;;12.85;100.00
12468;BME280;57850;52.922;6.256;2023-05-01T01:15:40;102199.81;;;12.78;100.00
12468;BME280;57850;52.922;6.256;2023-05-01T01:18:18;102197.38;;;12.70;100.00
12468;BME280;57850;52.922;6.256;2023-05-01T01:20:50;102192.81;;;12.78;100.00
12468;BME280;57850;52.922;6.256;2023-05-01T01:23:45;102190.09;;;12.81;100.00
12468;BME280;57850;52.922;6.256;2023-05-01T01:26:42;102196.72;;;12.61;100.00
12468;BME280;57850;52.922;6.256;2023-05-01T01:29:39;102183.41;;;12.71;100.00
12468;BME280;57850;52.922;6.256;2023-05-01T01:32:22;102188.06;;;12.59;100.00
12468;BME280;57850;52.922;6.256;2023-05-01T01:35:00;102183.84;;;12.52;100.00
12468;BME280;57850;52.922;6.256;2023-05-01T01:37:35;102181.25;;;12.50;100.00
12468;BME280;57850;52.922;6.256;2023-05-01T01:40:10;102175.16;;;12.50;100.00
12468;BME280;57850;52.922;6.256;2023-05-01T01:42:40;102175.16;;;12.50;100.00
12468;BME280;57850;52.922;6.256;2023-05-01T01:45:18;102177.09;;;12.42;100.00
12468;BME280;57850;52.922;6.256;2023-05-01T01:47:47;102184.69;;;12.12;100.00
12468;BME280;57850;52.922;6.256;2023-05-01T01:50:17;102181.09;;;11.76;100.00
12468;BME280;57850;52.922;6.256;2023-05-01T01:52:48;102163.41;;;11.89;100.00
12468;BME280;57850;52.922;6.256;2023-05-01T01:55:16;102155.09;;;12.10;100.00
12468;BME280;57850;52.922;6.256;2023-05-01T01:57:47;102156.97;;;12.05;100.00
12468;BME280;57850;52.922;6.256;2023-05-01T02:00:16;102152.47;;;12.12;100.00
12468;BME280;57850;52.922;6.256;2023-05-01T02:02:45;102146.38;;;12.11;100.00
12468;BME280;57850;52.922;6.256;2023-05-01T02:05:13;102128.53;;;12.28;100.00
12468;BME280;57850;52.922;6.256;2023-05-01T02:07:45;102128.44;;;12.33;100.00
12468;BME280;57850;52.922;6.256;2023-05-01T02:10:14;102133.00;;;12.23;100.00
12468;BME280;57850;52.922;6.256;2023-05-01T02:12:43;102123.41;;;12.24;100.00
12468;BME280;57850;52.922;6.256;2023-05-01T02:15:11;102113.75;;;12.27;100.00
12468;BME280;57850;52.922;6.256;2023-05-01T02:17:40;102118.19;;;12.22;100.00
12468;BME280;57850;52.922;6.256;2023-05-01T02:20:09;102115.44;;;12.28;100.00
12468;BME280;57850;52.922;6.256;2023-05-01T02:22:37;102109.41;;;12.25;100.00
12468;BME280;57850;52.922;6.256;2023-05-01T02:25:08;102100.88;;;12.17;100.00
12468;BME280;57850;52.922;6.256;2023-05-01T02:27:39;102102.78;;;12.10;100.00
12468;BME280;57850;52.922;6.256;2023-05-01T02:30:07;102096.72;;;12.08;100.00
12468;BME280;57850;52.922;6.256;2023-05-01T02:32:34;102104.44;;;11.74;100.00
12468;BME280;57850;52.922;6.256;2023-05-01T02:35:00;102104.25;;;11.38;100.00
12468;BME280;57850;52.922;6.256;2023-05-01T02:37:27;102107.00;;;11.32;100.00
12468;BME280;57850;52.922;6.256;2023-05-01T02:39:55;102098.44;;;11.23;100.00
12468;BME280;57850;52.922;6.256;2023-05-01T02:42:24;102082.47;;;11.37;100.00
12468;BME280;57850;52.922;6.256;2023-05-01T02:44:54;102078.97;;;11.40;100.00
12468;BME280;57850;52.922;6.256;2023-05-01T02:47:22;102073.63;;;11.44;100.00
12468;BME280;57850;52.922;6.256;2023-05-01T02:49:52;102076.31;;;11.43;100.00
12468;BME280;57850;52.922;6.256;2023-05-01T02:52:19;102061.34;;;11.49;100.00
12468;BME280;57850;52.922;6.256;2023-05-01T02:54:47;102070.03;;;11.51;100.00
12468;BME280;57850;52.922;6.256;2023-05-01T02:57:15;102063.03;;;11.52;100.00
12468;BME280;57850;52.922;6.256;2023-05-01T02:59:44;102062.25;;;11.48;100.00
12468;BME280;57850;52.922;6.256;2023-05-01T03:02:11;102059.03;;;11.34;100.00
12468;BME280;57850;52.922;6.256;2023-05-01T03:04:37;102061.00;;;11.23;100.00
12468;BME280;57850;52.922;6.256;2023-05-01T03:07:04;102070.75;;;11.15;100.00
12468;BME280;57850;52.922;6.256;2023-05-01T03:09:31;102053.19;;;11.21;100.00
12468;BME280;57850;52.922;6.256;2023-05-01T03:11:58;102053.31;;;11.15;100.00
12468;BME280;57850;52.922;6.256;2023-05-01T03:14:25;102043.72;;;11.16;100.00
12468;BME280;57850;52.922;6.256;2023-05-01T03:16:54;102035.50;;;11.36;100.00
12468;BME280;57850;52.922;6.256;2023-05-01T03:19:20;102034.69;;;11.34;100.00
12468;BME280;57850;52.922;6.256;2023-05-01T03:21:47;102031.16;;;11.35;100.00
12468;BME280;57850;52.922;6.256;2023-05-01T03:24:13;102037.28;;;11.34;100.00
12468;BME280;57850;52.922;6.256;2023-05-01T03:26:40;102030.41;;;11.29;100.00
12468;BME280;57850;52.922;6.256;2023-05-01T03:29:07;102020.88;;;11.25;100.00
12468;BME280;57850;52.922;6.256;2023-05-01T03:31:34;102030.91;;;11.04;100.00
12468;BME280;57850;52.922;6.256;2023-05-01T03:34:02;102026.78;;;10.92;100.00
12468;BME280;57850;52.922;6.256;2023-05-01T03:36:28;102013.47;;;11.04;100.00
12468;BME280;57850;52.922;6.256;2023-05-01T03:38:58;102013.25;;;11.16;100.00
12468;BME280;57850;52.922;6.256;2023-05-01T03:41:25;102013.22;;;11.18;100.00
12468;BME280;57850;52.922;6.256;2023-05-01T03:43:51;102006.28;;;11.15;100.00
12468;BME280;57850;52.922;6.256;2023-05-01T03:46:18;102009.06;;;11.06;100.00
12468;BME280;57850;52.922;6.256;2023-05-01T03:48:44;101997.69;;;11.10;100.00
12468;BME280;57850;52.922;6.256;2023-05-01T03:51:12;101999.38;;;11.13;100.00
12468;BME280;57850;52.922;6.256;2023-05-01T03:53:41;102000.44;;;11.04;100.00
12468;BME280;57850;52.922;6.256;2023-05-01T03:56:07;101992.47;;;11.10;100.00
12468;BME280;57850;52.922;6.256;2023-05-01T03:58:34;101992.44;;;11.12;100.00
12468;BME280;57850;52.922;6.256;2023-05-01T04:01:01;101990.72;;;11.09;100.00
12468;BME280;57850;52.922;6.256;2023-05-01T04:03:28;102003.09;;;11.00;100.00
12468;BME280;57850;52.922;6.256;2023-05-01T04:05:54;101998.00;;;10.95;100.00
12468;BME280;57850;52.922;6.256;2023-05-01T04:08:23;101990.09;;;10.98;100.00
12468;BME280;57850;52.922;6.256;2023-05-01T04:10:49;101986.59;;;10.99;100.00
12468;BME280;57850;52.922;6.256;2023-05-01T04:13:16;101983.22;;;10.94;100.00
12468;BME280;57850;52.922;6.256;2023-05-01T04:15:43;101981.44;;;10.96;100.00
12468;BME280;57850;52.922;6.256;2023-05-01T04:18:09;101981.44;;;10.96;100.00
12468;BME280;57850;52.922;6.256;2023-05-01T04:20:36;101977.97;;;10.94;100.00
12468;BME280;57850;52.922;6.256;2023-05-01T04:23:04;101977.13;;;10.94;100.00
12468;BME280;57850;52.922;6.256;2023-05-01T04:25:32;101971.84;;;10.97;100.00
12468;BME280;57850;52.922;6.256;2023-05-01T04:27:58;101972.81;;;10.91;100.00
12468;BME280;57850;52.922;6.256;2023-05-01T04:30:25;101971.78;;;11.00;100.00
12468;BME280;57850;52.922;6.256;2023-05-01T04:32:51;101969.97;;;11.03;100.00
12468;BME280;57850;52.922;6.256;2023-05-01T04:35:18;101961.25;;;11.03;100.00
12468;BME280;57850;52.922;6.256;2023-05-01T04:37:44;101962.84;;;11.11;100.00
12468;BME280;57850;52.922;6.256;2023-05-01T04:40:11;101960.19;;;11.14;100.00
12468;BME280;57850;52.922;6.256;2023-05-01T04:42:39;101959.38;;;11.11;100.00
12468;BME280;57850;52.922;6.256;2023-05-01T04:45:07;101961.00;;;11.16;100.00
12468;BME280;57850;52.922;6.256;2023-05-01T04:47:33;101957.31;;;11.26;100.00
12468;BME280;57850;52.922;6.256;2023-05-01T04:50:00;101955.34;;;11.36;100.00
12468;BME280;57850;52.922;6.256;2023-05-01T04:52:27;101955.44;;;11.33;100.00
12468;BME280;57850;52.922;6.256;2023-05-01T04:54:53;101952.75;;;11.35;100.00
12468;BME280;57850;52.922;6.256;2023-05-01T04:57:20;101950.88;;;11.43;100.00
12468;BME280;57850;52.922;6.256;2023-05-01T04:59:48;101950.06;;;11.39;100.00
12468;BME280;57850;52.922;6.256;2023-05-01T05:02:14;101943.91;;;11.42;100.00
12468;BME280;57850;52.922;6.256;2023-05-01T05:04:41;101944.72;;;11.44;100.00
12468;BME280;57850;52.922;6.256;2023-05-01T05:07:07;101946.16;;;11.58;100.00
12468;BME280;57850;52.922;6.256;2023-05-01T05:09:34;101940.63;;;11.72;100.00
12468;BME280;57850;52.922;6.256;2023-05-01T05:12:00;101936.16;;;11.77;100.00
12468;BME280;57850;52.922;6.256;2023-05-01T05:14:28;101942.41;;;11.68;100.00
12468;BME280;57850;52.922;6.256;2023-05-01T05:16:56;101939.84;;;11.67;100.00
12468;BME280;57850;52.922;6.256;2023-05-01T05:19:22;101936.25;;;11.74;100.00
12468;BME280;57850;52.922;6.256;2023-05-01T05:21:49;101946.72;;;11.72;100.00
12468;BME280;57850;52.922;6.256;2023-05-01T05:24:15;101949.97;;;11.82;100.00
12468;BME280;57850;52.922;6.256;2023-05-01T05:26:41;101939.19;;;11.96;100.00
12468;BME280;57850;52.922;6.256;2023-05-01T05:29:08;101931.84;;;12.10;100.00
12468;BME280;57850;52.922;6.256;2023-05-01T05:31:34;101929.88;;;12.19;100.00
12468;BME280;57850;52.922;6.256;2023-05-01T05:34:03;101926.22;;;12.25;100.00
12468;BME280;57850;52.922;6.256;2023-05-01T05:36:30;101928.59;;;12.35;100.00
12468;BME280;57850;52.922;6.256;2023-05-01T05:38:58;101927.38;;;12.47;100.00
12468;BME280;57850;52.922;6.256;2023-05-01T05:41:24;101927.47;;;12.44;100.00
12468;BME280;57850;52.922;6.256;2023-05-01T05:43:51;101928.00;;;12.57;100.00
12468;BME280;57850;52.922;6.256;2023-05-01T05:46:18;101931.66;;;12.51;100.00
12468;BME280;57850;52.922;6.256;2023-05-01T05:48:44;101920.81;;;12.65;100.00
12468;BME280;57850;52.922;6.256;2023-05-01T05:51:12;101916.38;;;12.67;100.00
12468;BME280;57850;52.922;6.256;2023-05-01T05:53:39;101919.63;;;12.76;100.00
12468;BME280;57850;52.922;6.256;2023-05-01T05:56:06;101917.84;;;12.77;100.00
12468;BME280;57850;52.922;6.256;2023-05-01T05:58:33;101920.47;;;12.77;100.00
12468;BME280;57850;52.922;6.256;2023-05-01T06:00:59;101923.88;;;12.80;100.00
12468;BME280;57850;52.922;6.256;2023-05-01T06:03:26;101912.00;;;12.98;100.00
12468;BME280;57850;52.922;6.256;2023-05-01T06:05:52;101910.50;;;12.89;100.00
12468;BME280;57850;52.922;6.256;2023-05-01T06:08:20;101901.31;;;13.06;100.00
12468;BME280;57850;52.922;6.256;2023-05-01T06:10:47;101904.75;;;13.06;100.00
12468;BME280;57850;52.922;6.256;2023-05-01T06:13:13;101904.56;;;13.15;100.00
12468;BME280;57850;52.922;6.256;2023-05-01T06:15:40;101894.97;;;13.14;100.00
12468;BME280;57850;52.922;6.256;2023-05-01T06:18:07;101891.66;;;13.37;100.00
12468;BME280;57850;52.922;6.256;2023-05-01T06:20:33;101890.44;;;13.47;100.00
12468;BME280;57850;52.922;6.256;2023-05-01T06:23:00;101892.56;;;13.36;100.00
12468;BME280;57850;52.922;6.256;2023-05-01T06:25:28;101896.91;;;13.37;100.00
12468;BME280;57850;52.922;6.256;2023-05-01T06:27:55;101884.78;;;13.61;100.00
12468;BME280;57850;52.922;6.256;2023-05-01T06:30:21;101875.34;;;13.81;100.00
12468;BME280;57850;52.922;6.256;2023-05-01T06:32:48;101884.47;;;13.70;100.00
12468;BME280;57850;52.922;6.256;2023-05-01T06:35:15;101888.00;;;13.41;100.00
12468;BME280;57850;52.922;6.256;2023-05-01T06:37:41;101882.03;;;13.64;100.00
12468;BME280;57850;52.922;6.256;2023-05-01T06:40:09;101866.66;;;13.79;100.00
12468;BME280;57850;52.922;6.256;2023-05-01T06:42:37;101879.00;;;13.77;100.00
12468;BME280;57850;52.922;6.256;2023-05-01T06:45:05;101875.94;;;13.63;100.00
12468;BME280;57850;52.922;6.256;2023-05-01T06:47:32;101864.56;;;13.90;100.00
12468;BME280;57850;52.922;6.256;2023-05-01T06:49:58;101863.44;;;14.22;100.00
12468;BME280;57850;52.922;6.256;2023-05-01T06:52:25;101859.75;;;14.28;100.00
12468;BME280;57850;52.922;6.256;2023-05-01T06:54:51;101848.66;;;14.44;100.00
12468;BME280;57850;52.922;6.256;2023-05-01T06:57:18;101846.53;;;14.56;100.00
12468;BME280;57850;52.922;6.256;2023-05-01T06:59:46;101848.34;;;14.54;100.00
12468;BME280;57850;52.922;6.256;2023-05-01T07:02:12;101840.94;;;14.65;100.00
12468;BME280;57850;52.922;6.256;2023-05-01T07:04:39;101838.97;;;14.70;100.00
12468;BME280;57850;52.922;6.256;2023-05-01T07:07:06;101832.72;;;14.97;100.00
12468;BME280;57850;52.922;6.256;2023-05-01T07:09:32;101827.50;;;14.95;100.00
12468;BME280;57850;52.922;6.256;2023-05-01T07:11:59;101829.69;;;14.84;100.00
12468;BME280;57850;52.922;6.256;2023-05-01T07:14:25;101820.06;;;15.07;100.00
12468;BME280;57850;52.922;6.256;2023-05-01T07:16:53;101823.44;;;14.87;100.00
12468;BME280;57850;52.922;6.256;2023-05-01T07:19:20;101823.88;;;14.98;100.00
12468;BME280;57850;52.922;6.256;2023-05-01T07:21:46;101814.69;;;15.10;100.00
12468;BME280;57850;52.922;6.256;2023-05-01T07:24:13;101794.38;;;15.57;100.00
12468;BME280;57850;52.922;6.256;2023-05-01T07:26:41;101801.41;;;15.34;100.00
12468;BME280;57850;52.922;6.256;2023-05-01T07:29:07;101781.38;;;15.94;100.00
12468;BME280;57850;52.922;6.256;2023-05-01T07:31:34;101798.28;;;15.46;100.00
12468;BME280;57850;52.922;6.256;2023-05-01T07:34:03;101769.59;;;15.82;100.00
12468;BME280;57850;52.922;6.256;2023-05-01T07:36:30;101758.69;;;16.10;100.00
12468;BME280;57850;52.922;6.256;2023-05-01T07:38:58;101751.69;;;16.48;100.00
12468;BME280;57850;52.922;6.256;2023-05-01T07:41:25;101759.56;;;16.11;100.00
12468;BME280;57850;52.922;6.256;2023-05-01T07:43:51;101768.41;;;16.10;100.00
12468;BME280;57850;52.922;6.256;2023-05-01T07:46:18;101758.66;;;16.12;100.00
12468;BME280;57850;52.922;6.256;2023-05-01T07:48:44;101750.34;;;16.39;100.00
12468;BME280;57850;52.922;6.256;2023-05-01T07:51:12;101719.53;;;16.97;100.00
12468;BME280;57850;52.922;6.256;2023-05-01T07:53:39;101719.84;;;17.08;100.00
12468;BME280;57850;52.922;6.256;2023-05-01T07:56:07;101694.63;;;17.54;100.00
12468;BME280;57850;52.922;6.256;2023-05-01T07:58:34;101682.31;;;18.20;100.00
12468;BME280;57850;52.922;6.256;2023-05-01T08:01:02;101672.53;;;18.38;100.00
12468;BME280;57850;52.922;6.256;2023-05-01T08:03:28;101719.78;;;17.27;100.00
12468;BME280;57850;52.922;6.256;2023-05-01T08:05:55;101700.16;;;17.67;100.00
12468;BME280;57850;52.922;6.256;2023-05-01T08:08:23;101663.59;;;18.41;100.00
12468;BME280;57850;52.922;6.256;2023-05-01T08:10:50;101679.94;;;17.83;100.00
12468;BME280;57850;52.922;6.256;2023-05-01T08:13:17;101673.53;;;17.72;100.00
12468;BME280;57850;52.922;6.256;2023-05-01T08:15:44;101618.91;;;18.36;100.00
12468;BME280;57850;52.922;6.256;2023-05-01T08:18:11;101601.00;;;18.73;100.00
12468;BME280;57850;52.922;6.256;2023-05-01T08:20:43;101610.16;;;18.97;100.00
12468;BME280;57850;52.922;6.256;2023-05-01T08:23:10;101619.25;;;18.46;100.00
12468;BME280;57850;52.922;6.256;2023-05-01T08:25:38;101601.06;;;18.71;100.00
12468;BME280;57850;52.922;6.256;2023-05-01T08:28:05;101587.50;;;19.21;100.00
12468;BME280;57850;52.922;6.256;2023-05-01T08:30:32;101577.63;;;19.81;100.00
12468;BME280;57850;52.922;6.256;2023-05-01T08:32:58;101577.63;;;19.81;100.00
12468;BME280;57850;52.922;6.256;2023-05-01T08:35:25;101549.13;;;19.99;100.00
12468;BME280;57850;52.922;6.256;2023-05-01T08:37:52;101535.25;;;20.22;100.00
12468;BME280;57850;52.922;6.256;2023-05-01T08:40:18;101530.97;;;19.93;96.72
12468;BME280;57850;52.922;6.256;2023-05-01T08:42:46;101533.66;;;20.19;96.81
12468;BME280;57850;52.922;6.256;2023-05-01T08:45:14;101520.19;;;20.49;96.08
12468;BME280;57850;52.922;6.256;2023-05-01T08:47:42;101526.84;;;20.29;95.96
12468;BME280;57850;52.922;6.256;2023-05-01T08:50:09;101509.75;;;20.73;96.40
12468;BME280;57850;52.922;6.256;2023-05-01T08:52:39;101539.22;;;20.15;97.06
12468;BME280;57850;52.922;6.256;2023-05-01T08:55:07;101516.47;;;20.91;97.24
12468;BME280;57850;52.922;6.256;2023-05-01T08:57:37;101526.44;;;21.00;100.00
12468;BME280;57850;52.922;6.256;2023-05-01T09:00:10;101525.56;;;20.74;97.81
12468;BME280;57850;52.922;6.256;2023-05-01T09:02:40;101568.75;;;20.76;100.00
12468;BME280;57850;52.922;6.256;2023-05-01T09:05:09;101521.13;;;20.88;97.75
12468;BME280;57850;52.922;6.256;2023-05-01T09:07:36;101563.69;;;20.47;100.00
12468;BME280;57850;52.922;6.256;2023-05-01T09:10:03;101522.22;;;21.10;100.00
12468;BME280;57850;52.922;6.256;2023-05-01T09:12:30;101499.50;;;21.68;100.00
12468;BME280;57850;52.922;6.256;2023-05-01T09:15:01;101474.50;;;22.54;100.00
12468;BME280;57850;52.922;6.256;2023-05-01T09:17:30;101476.50;;;22.16;97.86
12468;BME280;57850;52.922;6.256;2023-05-01T09:19:58;101451.25;;;22.80;98.05
12468;BME280;57850;52.922;6.256;2023-05-01T09:22:29;101451.63;;;23.20;98.58
12468;BME280;57850;52.922;6.256;2023-05-01T09:24:57;101462.66;;;22.58;93.80
12468;BME280;57850;52.922;6.256;2023-05-01T09:27:24;101473.88;;;22.85;98.65
12468;BME280;57850;52.922;6.256;2023-05-01T09:29:52;101430.25;;;23.75;97.39
12468;BME280;57850;52.922;6.256;2023-05-01T09:32:22;101403.25;;;24.32;96.97
12468;BME280;57850;52.922;6.256;2023-05-01T09:34:51;101427.03;;;23.61;95.91
12468;BME280;57850;52.922;6.256;2023-05-01T09:37:25;101427.56;;;23.75;95.51
12468;BME280;57850;52.922;6.256;2023-05-01T09:40:06;101412.53;;;24.06;91.74
12468;BME280;57850;52.922;6.256;2023-05-01T09:42:34;101371.34;;;25.02;91.32
12468;BME280;57850;52.922;6.256;2023-05-01T09:45:03;101462.00;;;22.78;94.72
12468;BME280;57850;52.922;6.256;2023-05-01T09:47:30;101413.53;;;24.37;94.05
12468;BME280;57850;52.922;6.256;2023-05-01T09:49:59;101373.91;;;25.23;94.18
12468;BME280;57850;52.922;6.256;2023-05-01T09:52:26;101353.34;;;25.92;90.88
12468;BME280;57850;52.922;6.256;2023-05-01T09:55:12;101379.94;;;25.65;87.66
12468;BME280;57850;52.922;6.256;2023-05-01T09:57:39;101346.16;;;26.22;87.74
12468;BME280;57850;52.922;6.256;2023-05-01T10:00:08;101337.41;;;26.10;88.21
12468;BME280;57850;52.922;6.256;2023-05-01T10:02:35;101340.03;;;26.39;86.36
12468;BME280;57850;52.922;6.256;2023-05-01T10:05:04;101331.19;;;26.29;88.08
12468;BME280;57850;52.922;6.256;2023-05-01T10:07:31;101358.81;;;26.20;85.38
12468;BME280;57850;52.922;6.256;2023-05-01T10:09:58;101335.69;;;26.38;85.77
12468;BME280;57850;52.922;6.256;2023-05-01T10:12:40;101315.94;;;26.85;87.21
12468;BME280;57850;52.922;6.256;2023-05-01T10:15:08;101275.31;;;27.96;87.52
12468;BME280;57850;52.922;6.256;2023-05-01T10:17:35;101277.97;;;28.13;86.03
12468;BME280;57850;52.922;6.256;2023-05-01T10:20:05;101303.63;;;27.73;82.32
12468;BME280;57850;52.922;6.256;2023-05-01T10:22:32;101313.91;;;26.60;85.93
12468;BME280;57850;52.922;6.256;2023-05-01T10:24:59;101287.44;;;28.00;81.93
12468;BME280;57850;52.922;6.256;2023-05-01T10:27:27;101315.38;;;27.72;80.98
12468;BME280;57850;52.922;6.256;2023-05-01T10:29:53;101329.63;;;26.36;84.62
12468;BME280;57850;52.922;6.256;2023-05-01T10:32:20;101321.19;;;26.40;84.30
12468;BME280;57850;52.922;6.256;2023-05-01T10:34:50;101320.00;;;26.16;85.57
12468;BME280;57850;52.922;6.256;2023-05-01T10:37:22;101343.50;;;25.64;84.46
12468;BME280;57850;52.922;6.256;2023-05-01T10:39:50;101324.22;;;25.70;86.62
12468;BME280;57850;52.922;6.256;2023-05-01T10:42:16;101314.84;;;26.32;86.19
12468;BME280;57850;52.922;6.256;2023-05-01T10:44:43;101288.84;;;27.16;84.45
12468;BME280;57850;52.922;6.256;2023-05-01T10:47:44;101288.53;;;27.19;83.43
12468;BME280;57850;52.922;6.256;2023-05-01T10:50:13;101259.03;;;28.15;83.16
12468;BME280;57850;52.922;6.256;2023-05-01T10:53:16;101271.84;;;27.60;84.83
12468;BME280;57850;52.922;6.256;2023-05-01T10:55:43;101214.38;;;28.98;85.60
12468;BME280;57850;52.922;6.256;2023-05-01T10:58:10;101242.34;;;28.63;83.25
12468;BME280;57850;52.922;6.256;2023-05-01T11:00:37;101256.00;;;28.44;82.56
12468;BME280;57850;52.922;6.256;2023-05-01T11:03:35;101247.69;;;28.29;83.73
12468;BME280;57850;52.922;6.256;2023-05-01T11:06:07;101251.31;;;27.94;83.98
12468;BME280;57850;52.922;6.256;2023-05-01T11:08:35;101251.16;;;27.70;86.09
12468;BME280;57850;52.922;6.256;2023-05-01T11:14:07;101299.91;;;26.39;88.46
12468;BME280;57850;52.922;6.256;2023-05-01T11:16:42;101371.19;;;25.63;90.41
12468;BME280;57850;52.922;6.256;2023-05-01T11:19:43;101330.63;;;26.81;88.86
12468;BME280;57850;52.922;6.256;2023-05-01T11:22:12;101288.56;;;28.41;85.77
12468;BME280;57850;52.922;6.256;2023-05-01T11:24:40;101316.72;;;26.95;87.15
12468;BME280;57850;52.922;6.256;2023-05-01T11:27:07;101304.19;;;26.96;87.15
12468;BME280;57850;52.922;6.256;2023-05-01T11:29:35;101301.22;;;27.17;86.92
12468;BME280;57850;52.922;6.256;2023-05-01T11:32:03;101318.19;;;26.90;89.52
12468;BME280;57850;52.922;6.256;2023-05-01T11:34:34;101282.25;;;27.81;87.55
12468;BME280;57850;52.922;6.256;2023-05-01T11:37:02;101290.53;;;27.70;87.88
12468;BME280;57850;52.922;6.256;2023-05-01T11:39:29;101301.88;;;27.63;84.27
12468;BME280;57850;52.922;6.256;2023-05-01T11:42:07;101248.22;;;28.66;85.73
12468;BME280;57850;52.922;6.256;2023-05-01T11:44:34;101286.53;;;28.35;81.98
12468;BME280;57850;52.922;6.256;2023-05-01T11:47:01;101269.72;;;28.33;82.95
12468;BME280;57850;52.922;6.256;2023-05-01T11:49:28;101259.34;;;28.38;83.79
12468;BME280;57850;52.922;6.256;2023-05-01T11:51:55;101291.69;;;27.67;84.32
12468;BME280;57850;52.922;6.256;2023-05-01T11:54:23;101300.91;;;26.75;84.75
12468;BME280;57850;52.922;6.256;2023-05-01T11:56:57;101314.72;;;26.33;84.48
12468;BME280;57850;52.922;6.256;2023-05-01T11:59:26;101329.25;;;26.02;85.06
12468;BME280;57850;52.922;6.256;2023-05-01T12:01:53;101315.28;;;26.37;84.50
12468;BME280;57850;52.922;6.256;2023-05-01T12:04:24;101297.06;;;26.87;84.79
12468;BME280;57850;52.922;6.256;2023-05-01T12:06:51;101292.13;;;27.09;85.36
12468;BME280;57850;52.922;6.256;2023-05-01T12:09:19;101299.69;;;26.96;83.22
12468;BME280;57850;52.922;6.256;2023-05-01T12:11:47;101306.25;;;26.75;82.53
12468;BME280;57850;52.922;6.256;2023-05-01T12:14:15;101341.78;;;25.73;83.69
12468;BME280;57850;52.922;6.256;2023-05-01T12:16:43;101315.13;;;26.29;83.70
12468;BME280;57850;52.922;6.256;2023-05-01T12:19:12;101295.06;;;26.89;84.84
12468;BME280;57850;52.922;6.256;2023-05-01T12:21:39;101328.19;;;26.41;82.24
12468;BME280;57850;52.922;6.256;2023-05-01T12:24:09;101281.72;;;27.06;83.96
12468;BME280;57850;52.922;6.256;2023-05-01T12:26:35;101247.44;;;28.82;81.83
12468;BME280;57850;52.922;6.256;2023-05-01T12:29:04;101268.25;;;28.12;82.23
12468;BME280;57850;52.922;6.256;2023-05-01T12:31:32;101253.19;;;28.19;82.21
12468;BME280;57850;52.922;6.256;2023-05-01T12:34:01;101271.47;;;28.16;80.29
12468;BME280;57850;52.922;6.256;2023-05-01T12:36:30;101297.97;;;26.95;83.14
12468;BME280;57850;52.922;6.256;2023-05-01T12:38:58;101340.91;;;25.34;85.74
12468;BME280;57850;52.922;6.256;2023-05-01T12:41:36;101337.75;;;26.44;84.83
12468;BME280;57850;52.922;6.256;2023-05-01T12:44:15;101311.59;;;26.84;83.46
12468;BME280;57850;52.922;6.256;2023-05-01T12:46:42;101307.19;;;26.56;85.07
12468;BME280;57850;52.922;6.256;2023-05-01T12:49:16;101300.34;;;26.98;84.33
12468;BME280;57850;52.922;6.256;2023-05-01T12:51:45;101307.22;;;26.74;83.08
12468;BME280;57850;52.922;6.256;2023-05-01T12:54:17;101310.47;;;26.77;83.59